Time;durP1;ratioP1;P1;durP2;ratioP2;P2;SDS_P1;SDS_P2;PMS_P1;PMS_P2;Temp;Humidity;BMP_temperature;BMP_pressure;BME280_temperature;BME280_humidity;BME280_pressure;Samples;Min_cycle;Max_cycle;Signal;HPM_P1;HPM_P2
2023/03/30 00:01:40;;;;;;;11.63;3.03;;;12.60;1.00;13.40;93847.00;;;;7404070;19;20164;-75
2023/03/30 00:04:10;;;;;;;14.48;3.10;;;12.60;1.00;13.40;93842.00;;;;7405129;19;20606;-76
2023/03/30 00:06:44;;;;;;;14.18;2.47;;;12.70;1.00;13.40;93839.00;;;;7403463;19;20212;-77
2023/03/30 00:09:12;;;;;;;11.52;2.78;;;12.70;1.00;13.30;93840.00;;;;7405235;19;20148;-76
2023/03/30 00:11:46;;;;;;;10.35;2.72;;;12.70;1.00;13.30;93819.00;;;;7405041;19;20113;-76
2023/03/30 00:14:16;;;;;;;16.73;2.97;;;12.70;1.00;13.30;93820.00;;;;7403154;19;20170;-77
2023/03/30 00:16:52;;;;;;;11.40;3.13;;;12.70;1.00;13.50;93827.00;;;;7404533;19;20135;-74
2023/03/30 00:19:19;;;;;;;11.93;3.60;;;12.70;1.00;13.50;93821.00;;;;7403216;19;20180;-76
2023/03/30 00:21:53;;;;;;;12.52;2.95;;;12.80;1.00;13.60;93808.00;;;;7405364;19;20600;-74
2023/03/30 00:24:20;;;;;;;15.43;3.08;;;12.80;1.00;13.60;93814.00;;;;7403800;19;20129;-76
2023/03/30 00:26:54;;;;;;;10.93;2.38;;;12.80;1.00;13.60;93813.00;;;;7401939;19;20152;-74
2023/03/30 00:29:28;;;;;;;19.30;2.70;;;12.80;1.00;13.60;93762.00;;;;7405358;19;20136;-77
2023/03/30 00:32:02;;;;;;;11.32;3.13;;;12.80;1.00;13.50;93777.00;;;;7404139;19;20129;-76
2023/03/30 00:34:42;;;;;;;15.57;2.97;;;12.80;1.00;13.60;93785.00;;;;7400154;19;20169;-77
2023/03/30 00:37:10;;;;;;;10.20;2.70;;;12.80;1.00;13.60;93791.00;;;;7402628;19;20120;-74
2023/03/30 00:39:44;;;;;;;10.45;3.30;;;12.90;1.00;13.50;93785.00;;;;7402411;19;20606;-75
2023/03/30 00:42:20;;;;;;;15.30;3.30;;;12.90;1.00;13.30;93772.00;;;;7403416;19;20160;-75
2023/03/30 00:45:19;;;;;;;12.70;2.95;;;12.80;1.00;13.50;93795.00;;;;7402275;19;20148;-75
2023/03/30 00:48:02;;;;;;;12.98;3.05;;;12.80;1.00;13.40;93801.00;;;;7401298;19;20149;-74
2023/03/30 00:50:50;;;;;;;17.52;3.47;;;12.80;1.00;13.50;93797.00;;;;7403487;19;20622;-76
2023/03/30 00:53:28;;;;;;;18.00;3.22;;;12.70;1.00;13.60;93770.00;;;;7404603;19;20129;-74
2023/03/30 00:56:06;;;;;;;12.27;2.80;;;12.80;1.00;13.60;93806.00;;;;7401252;19;20587;-76
2023/03/30 00:58:36;;;;;;;10.95;2.85;;;12.80;1.00;13.30;93775.00;;;;7402268;19;20245;-77
2023/03/30 01:01:13;;;;;;;12.85;3.08;;;12.70;1.00;13.40;93836.00;;;;7402811;19;20117;-76
2023/03/30 01:03:46;;;;;;;14.27;3.03;;;12.70;1.00;13.00;93856.00;;;;7400208;19;20235;-74
2023/03/30 01:06:30;;;;;;;15.00;2.65;;;12.60;1.00;12.30;93849.00;;;;7401923;19;20137;-75
2023/03/30 01:09:05;;;;;;;13.93;2.78;;;12.20;29.90;11.50;93849.00;;;;7403316;19;20226;-77
2023/03/30 01:11:32;;;;;;;13.45;3.25;;;11.80;99.90;11.20;93842.00;;;;7400145;19;20145;-78
2023/03/30 01:14:10;;;;;;;19.17;2.97;;;11.40;99.90;10.90;93839.00;;;;7401170;19;20148;-77
2023/03/30 01:17:00;;;;;;;14.57;3.15;;;11.10;1.00;10.80;93837.00;;;;7403737;19;20600;-77
2023/03/30 01:20:14;;;;;;;12.35;3.42;;;11.00;1.00;10.70;93821.00;;;;7401644;19;20521;-78
2023/03/30 01:23:26;;;;;;;14.43;3.55;;;10.80;1.00;10.60;93832.00;;;;7401423;19;20587;-78
2023/03/30 01:26:45;;;;;;;16.45;3.25;;;10.70;1.00;10.80;93812.00;;;;7400403;19;20116;-77
2023/03/30 01:29:59;;;;;;;17.60;3.60;;;10.70;1.00;10.90;93838.00;;;;7401827;19;20140;-77
2023/03/30 01:33:23;;;;;;;9.77;2.95;;;10.60;1.00;11.20;93848.00;;;;7403143;19;20125;-76
2023/03/30 01:36:33;;;;;;;12.85;2.80;;;10.70;1.00;11.30;93844.00;;;;7401605;19;20192;-77
2023/03/30 01:39:35;;;;;;;14.32;3.75;;;10.70;1.00;11.40;93837.00;;;;7401463;19;20155;-75
2023/03/30 01:42:37;;;;;;;14.32;3.00;;;10.70;1.00;11.40;93836.00;;;;7403630;19;20133;-77
2023/03/30 01:45:20;;;;;;;18.00;3.38;;;10.80;1.00;11.60;93821.00;;;;7401281;19;20609;-76
2023/03/30 01:48:00;;;;;;;15.93;3.13;;;10.80;1.00;11.50;93817.00;;;;7402803;19;20128;-74
2023/03/30 01:50:43;;;;;;;15.48;3.33;;;10.90;1.00;11.70;93815.00;;;;7402860;19;20372;-76
2023/03/30 01:53:42;;;;;;;16.77;3.05;;;10.90;1.00;12.00;93780.00;;;;7401151;19;20145;-77
2023/03/30 01:56:20;;;;;;;14.27;3.10;;;11.20;99.90;11.90;93811.00;;;;7400380;19;20133;-75
2023/03/30 01:59:06;;;;;;;14.27;3.35;;;11.30;99.90;11.80;93805.00;;;;7403216;19;20137;-77
2023/03/30 02:01:42;;;;;;;16.17;3.25;;;11.30;99.90;11.90;93772.00;;;;7399073;19;20148;-77
2023/03/30 02:04:22;;;;;;;14.60;3.88;;;11.30;99.90;11.90;93804.00;;;;7399221;19;20159;-75
2023/03/30 02:06:59;;;;;;;12.82;3.38;;;11.30;99.90;12.00;93815.00;;;;7396470;19;20484;-77
2023/03/30 02:09:37;;;;;;;18.15;2.92;;;11.40;99.90;11.90;93834.00;;;;7400240;19;20129;-77
2023/03/30 02:12:06;;;;;;;19.58;3.28;;;11.40;99.90;11.90;93822.00;;;;7400311;19;20178;-75
2023/03/30 02:14:41;;;;;;;15.05;3.28;;;11.40;99.90;11.80;93816.00;;;;7400810;19;20584;-77
2023/03/30 02:17:18;;;;;;;10.57;2.90;;;11.40;99.90;11.80;93806.00;;;;7400406;19;20176;-77
2023/03/30 02:19:55;;;;;;;12.40;3.03;;;11.30;99.90;11.80;93825.00;;;;7400216;19;20192;-76
2023/03/30 02:22:31;;;;;;;12.90;3.20;;;11.30;1.00;11.90;93819.00;;;;7400519;19;20121;-76
2023/03/30 02:24:59;;;;;;;14.93;3.42;;;11.30;1.00;11.80;93828.00;;;;7399079;19;20133;-75
2023/03/30 02:27:33;;;;;;;10.52;3.22;;;11.30;1.00;11.70;93821.00;;;;7398970;19;20148;-77
2023/03/30 02:30:01;;;;;;;18.17;4.03;;;11.20;1.00;11.50;93778.00;;;;7400685;19;20134;-77
2023/03/30 02:32:39;;;;;;;14.63;3.60;;;11.10;17.90;11.30;93806.00;;;;7397833;19;20137;-76
2023/03/30 02:35:56;;;;;;;16.13;3.35;;;10.90;99.90;11.20;93786.00;;;;7400312;19;20176;-78
2023/03/30 02:38:43;;;;;;;21.42;4.15;;;10.80;1.00;10.70;93771.00;;;;7400462;19;20583;-77
2023/03/30 02:41:40;;;;;;;14.07;3.42;;;10.60;49.60;10.70;93772.00;;;;7400491;19;20155;-82
2023/03/30 02:44:42;;;;;;;12.85;3.33;;;10.40;1.00;10.80;93770.00;;;;7398848;19;20189;-77
2023/03/30 02:48:00;;;;;;;15.98;3.78;;;10.30;30.10;10.70;93758.00;;;;7398223;19;20144;-81
2023/03/30 02:51:05;;;;;;;17.73;3.83;;;10.30;99.90;10.50;93760.00;;;;7401876;19;20448;-78
2023/03/30 02:53:45;;;;;;;17.33;3.75;;;10.20;1.00;10.50;93765.00;;;;7402860;19;20196;-76
2023/03/30 02:56:36;;;;;;;11.52;3.83;;;10.20;99.90;10.50;93750.00;;;;7398499;19;20629;-76
2023/03/30 02:59:12;;;;;;;16.17;3.83;;;10.10;99.90;10.50;93748.00;;;;7399606;19;20194;-78
2023/03/30 03:02:05;;;;;;;21.20;3.60;;;10.10;99.90;10.30;93733.00;;;;7398866;19;20128;-76
2023/03/30 03:04:42;;;;;;;12.27;4.07;;;10.10;1.00;10.20;93717.00;;;;7398601;19;20129;-80
2023/03/30 03:07:19;;;;;;;11.77;3.65;;;10.10;1.00;10.30;93739.00;;;;7396401;19;20152;-79
2023/03/30 03:09:47;;;;;;;22.38;4.38;;;10.00;1.00;10.10;93741.00;;;;7397660;19;20133;-78
2023/03/30 03:12:20;;;;;;;12.32;3.40;;;9.90;1.00;10.10;93726.00;;;;7397006;19;20434;-75
2023/03/30 03:14:54;;;;;;;19.17;4.20;;;9.80;1.00;10.10;93732.00;;;;7398036;19;20140;-77
2023/03/30 03:17:33;;;;;;;18.08;3.65;;;9.80;99.90;10.00;93715.00;;;;7397482;19;20599;-76
2023/03/30 03:20:03;;;;;;;16.55;5.00;;;9.80;99.90;10.00;93716.00;;;;7399045;19;20470;-77
2023/03/30 03:22:37;;;;;;;10.65;3.70;;;9.80;99.90;10.00;93725.00;;;;7398492;19;20152;-76
2023/03/30 03:25:11;;;;;;;10.27;3.35;;;9.70;99.90;10.00;93736.00;;;;7397564;19;20175;-77
2023/03/30 03:27:46;;;;;;;16.75;3.70;;;9.70;99.90;10.10;93713.00;;;;7397038;19;20121;-75
2023/03/30 03:30:13;;;;;;;12.32;3.63;;;9.70;1.00;10.20;93700.00;;;;7397394;19;20133;-77
2023/03/30 03:32:49;;;;;;;11.73;3.80;;;9.70;1.00;10.20;93714.00;;;;7396334;19;20148;-76
2023/03/30 03:35:30;;;;;;;16.20;4.13;;;9.80;1.00;10.20;93699.00;;;;7395829;19;20193;-78
2023/03/30 03:38:03;;;;;;;13.80;3.88;;;9.80;1.00;10.30;93689.00;;;;7396281;19;20135;-75
2023/03/30 03:40:37;;;;;;;15.52;3.47;;;9.80;1.00;10.20;93720.00;;;;7398420;19;20156;-75
2023/03/30 03:43:05;;;;;;;18.08;4.40;;;9.90;1.00;10.20;93708.00;;;;7397419;19;20140;-76
2023/03/30 03:45:38;;;;;;;19.73;4.22;;;9.90;1.00;10.20;93697.00;;;;7396871;19;20179;-77
2023/03/30 03:48:14;;;;;;;16.70;4.18;;;9.80;1.00;10.30;93698.00;;;;7398260;19;20129;-77
2023/03/30 03:50:43;;;;;;;22.98;4.50;;;9.80;1.00;10.10;93685.00;;;;7395804;19;20125;-79
2023/03/30 03:53:16;;;;;;;16.92;3.97;;;9.80;1.00;10.40;93670.00;;;;7394954;19;20159;-76
2023/03/30 03:55:45;;;;;;;14.27;3.70;;;9.80;1.00;10.30;93675.00;;;;7398525;19;20521;-75
2023/03/30 03:58:20;;;;;;;16.00;3.97;;;9.80;1.00;10.40;93645.00;;;;7397368;19;20500;-79
2023/03/30 04:01:01;;;;;;;14.45;4.40;;;9.80;99.90;10.30;93692.00;;;;7397816;19;20148;-76
2023/03/30 04:03:34;;;;;;;15.65;4.38;;;9.90;99.90;10.40;93679.00;;;;7396738;19;20136;-76
2023/03/30 04:06:08;;;;;;;19.98;4.18;;;9.80;99.90;10.40;93652.00;;;;7394137;19;20604;-77
2023/03/30 04:08:44;;;;;;;15.07;3.67;;;9.90;99.90;10.30;93645.00;;;;7397581;19;20162;-77
2023/03/30 04:11:12;;;;;;;14.57;4.85;;;9.90;99.90;10.50;93666.00;;;;7395984;19;20608;-78
2023/03/30 04:13:40;;;;;;;18.45;4.80;;;9.90;99.90;10.40;93653.00;;;;7398936;19;20125;-76
2023/03/30 04:16:14;;;;;;;16.98;4.60;;;9.90;99.90;10.50;93627.00;;;;7395682;19;20144;-75
2023/03/30 04:18:48;;;;;;;19.27;3.85;;;10.00;99.90;10.50;93608.00;;;;7395491;19;20129;-76
2023/03/30 04:21:24;;;;;;;20.63;4.63;;;10.00;73.70;10.40;93639.00;;;;7396239;19;20145;-75
2023/03/30 04:23:57;;;;;;;22.48;4.18;;;10.00;48.60;10.40;93642.00;;;;7395967;19;20244;-76
2023/03/30 04:26:31;;;;;;;19.67;4.05;;;10.00;1.00;10.50;93624.00;;;;7394361;19;20143;-76
2023/03/30 04:28:59;;;;;;;14.35;3.70;;;10.10;1.00;10.50;93636.00;;;;7397181;19;20125;-75
2023/03/30 04:31:33;;;;;;;20.95;3.92;;;10.10;1.00;10.50;93634.00;;;;7400122;19;20170;-74
2023/03/30 04:34:14;;;;;;;21.75;4.32;;;10.10;1.00;10.50;93617.00;;;;7402103;19;20200;-75
2023/03/30 04:36:49;;;;;;;16.75;4.50;;;10.10;1.00;10.40;93629.00;;;;7404497;19;20184;-77
2023/03/30 04:39:22;;;;;;;13.23;4.00;;;10.10;1.00;10.40;93588.00;;;;7402794;19;20148;-75
2023/03/30 04:41:56;;;;;;;21.33;4.05;;;10.00;1.00;10.50;93609.00;;;;7398421;19;20220;-75
2023/03/30 04:44:24;;;;;;;19.08;3.95;;;10.10;1.00;10.40;93596.00;;;;7398603;19;20678;-76
2023/03/30 04:46:57;;;;;;;11.85;3.90;;;10.00;1.00;10.50;93597.00;;;;7399158;19;20600;-74
2023/03/30 04:49:31;;;;;;;14.07;3.75;;;10.10;1.00;10.50;93615.00;;;;7399046;19;20129;-75
2023/03/30 04:52:06;;;;;;;17.15;4.03;;;10.00;1.00;10.40;93577.00;;;;7398628;19;20127;-74
2023/03/30 04:54:33;;;;;;;13.15;4.05;;;10.00;1.00;10.40;93596.00;;;;7398287;19;20147;-75
2023/03/30 04:57:07;;;;;;;16.50;4.05;;;10.00;1.00;10.50;93588.00;;;;7397620;19;20144;-74
2023/03/30 04:59:35;;;;;;;14.07;4.43;;;10.00;1.00;10.50;93564.00;;;;7400916;19;20137;-75
2023/03/30 05:02:10;;;;;;;20.67;3.97;;;10.00;1.00;10.40;93577.00;;;;7398151;19;20165;-75
2023/03/30 05:04:38;;;;;;;18.05;3.78;;;10.00;1.00;10.50;93558.00;;;;7399497;19;20177;-75
2023/03/30 05:07:13;;;;;;;16.30;3.78;;;10.00;1.00;10.50;93553.00;;;;7396677;19;20152;-76
2023/03/30 05:09:40;;;;;;;15.20;4.22;;;10.00;1.00;10.70;93566.00;;;;7397173;19;20128;-75
2023/03/30 05:12:15;;;;;;;15.20;3.85;;;10.10;1.00;10.70;93570.00;;;;7398394;19;20160;-73
2023/03/30 05:14:42;;;;;;;20.00;4.22;;;10.00;99.90;10.60;93578.00;;;;7401827;19;20141;-74
2023/03/30 05:17:16;;;;;;;16.70;3.90;;;10.00;99.90;10.70;93514.00;;;;7402221;19;20153;-76
2023/03/30 05:19:50;;;;;;;16.25;3.78;;;10.00;99.90;10.70;93554.00;;;;7402612;19;20149;-75
2023/03/30 05:22:24;;;;;;;13.32;3.50;;;10.10;99.90;10.80;93533.00;;;;7403356;19;20154;-75
2023/03/30 05:24:52;;;;;;;18.63;4.15;;;10.00;99.90;10.80;93532.00;;;;7401332;19;20136;-76
2023/03/30 05:27:25;;;;;;;21.85;4.32;;;10.10;99.90;10.80;93538.00;;;;7399591;19;20144;-75
2023/03/30 05:29:53;;;;;;;14.18;3.75;;;10.10;99.90;10.70;93535.00;;;;7401887;19;20133;-75
2023/03/30 05:32:26;;;;;;;18.20;4.10;;;10.10;99.90;10.90;93550.00;;;;7403473;19;20133;-75
2023/03/30 05:35:07;;;;;;;18.40;3.88;;;10.10;99.90;10.90;93572.00;;;;7401425;19;20208;-74
2023/03/30 05:37:41;;;;;;;16.48;3.97;;;10.10;99.90;10.90;93594.00;;;;7401178;19;20590;-75
2023/03/30 05:40:09;;;;;;;22.33;4.20;;;10.20;99.90;10.90;93608.00;;;;7402266;19;20121;-74
2023/03/30 05:42:43;;;;;;;14.00;3.90;;;10.20;99.90;10.90;93614.00;;;;7403064;19;20151;-75
2023/03/30 05:45:10;;;;;;;16.48;3.95;;;10.20;99.90;10.80;93618.00;;;;7401582;19;20153;-76
2023/03/30 05:47:44;;;;;;;12.05;3.22;;;10.30;99.90;10.70;93651.00;;;;7399248;19;20163;-77
2023/03/30 05:50:12;;;;;;;20.75;3.85;;;10.20;99.90;10.60;93633.00;;;;7400046;19;20611;-76
2023/03/30 05:52:45;;;;;;;20.13;3.60;;;10.10;99.90;10.70;93654.00;;;;7401627;19;20137;-76
2023/03/30 05:55:19;;;;;;;18.63;4.30;;;10.10;99.90;10.50;93677.00;;;;7400734;19;20137;-73
2023/03/30 05:57:46;;;;;;;21.02;4.53;;;10.10;1.00;10.40;93672.00;;;;7402429;19;20125;-77
2023/03/30 06:00:14;;;;;;;16.63;3.25;;;10.00;1.00;10.30;93666.00;;;;7401073;19;20133;-76
2023/03/30 06:02:48;;;;;;;16.98;4.32;;;10.00;1.00;10.20;93681.00;;;;7398121;19;20666;-75
2023/03/30 06:05:16;;;;;;;19.17;3.58;;;10.00;34.60;10.10;93693.00;;;;7400438;19;20654;-74
2023/03/30 06:07:49;;;;;;;13.73;3.60;;;10.00;99.90;10.30;93677.00;;;;7398759;19;20160;-76
2023/03/30 06:10:16;;;;;;;12.73;4.07;;;9.90;99.90;10.20;93668.00;;;;7401959;19;20213;-75
2023/03/30 06:12:50;;;;;;;17.60;6.05;;;9.90;99.90;10.20;93698.00;;;;7400033;19;20137;-75
2023/03/30 06:15:24;;;;;;;11.30;4.60;;;9.90;99.90;10.30;93690.00;;;;7402115;19;20485;-75
2023/03/30 06:18:02;;;;;;;19.90;3.95;;;9.90;99.90;10.30;93688.00;;;;7398917;19;20137;-74
2023/03/30 06:20:36;;;;;;;15.77;3.55;;;9.90;99.90;10.30;93703.00;;;;7401377;19;20120;-74
2023/03/30 06:23:04;;;;;;;12.65;3.67;;;9.90;99.90;10.40;93671.00;;;;7399675;19;20140;-74
2023/03/30 06:25:38;;;;;;;17.35;4.05;;;10.00;99.90;10.40;93696.00;;;;7401218;19;20532;-73
2023/03/30 06:28:06;;;;;;;19.05;4.13;;;10.10;99.90;10.40;93724.00;;;;7398910;19;20516;-76
2023/03/30 06:30:41;;;;;;;12.68;4.25;;;10.10;99.90;10.40;93699.00;;;;7398844;19;20618;-74
2023/03/30 06:33:18;;;;;;;19.25;4.50;;;10.10;99.90;10.40;93723.00;;;;7397157;19;20139;-74
2023/03/30 06:35:57;;;;;;;19.60;4.38;;;10.10;99.90;10.50;93676.00;;;;7397817;19;20172;-75
2023/03/30 06:38:31;;;;;;;16.60;4.43;;;10.00;99.90;10.20;93679.00;;;;7399195;19;20133;-75
2023/03/30 06:41:07;;;;;;;13.38;4.43;;;10.00;99.90;10.20;93712.00;;;;7399080;19;20140;-75
2023/03/30 06:43:46;;;;;;;17.30;3.65;;;10.10;99.90;10.10;93717.00;;;;7398445;19;20158;-77
2023/03/30 06:46:14;;;;;;;14.05;3.72;;;10.00;99.90;10.10;93771.00;;;;7398140;19;20148;-75
2023/03/30 06:48:48;;;;;;;8.60;3.83;;;9.90;99.90;10.00;93768.00;;;;7399491;19;20132;-73
2023/03/30 06:51:16;;;;;;;14.85;3.90;;;9.90;99.90;9.80;93763.00;;;;7400143;19;20488;-75
2023/03/30 06:53:50;;;;;;;11.27;4.53;;;9.80;99.90;9.70;93755.00;;;;7396426;19;20136;-75
2023/03/30 06:56:17;;;;;;;9.93;3.97;;;9.70;99.90;9.70;93746.00;;;;7397578;19;20156;-74
2023/03/30 06:58:51;;;;;;;7.65;4.10;;;9.60;99.90;9.60;93747.00;;;;7399314;19;20149;-77
2023/03/30 07:01:18;;;;;;;7.88;3.42;;;9.50;99.90;9.50;93721.00;;;;7399218;19;20125;-78
2023/03/30 07:03:53;;;;;;;10.60;3.40;;;9.50;99.90;9.50;93733.00;;;;7396486;19;20176;-76
2023/03/30 07:06:27;;;;;;;9.10;3.13;;;9.40;99.90;9.60;93778.00;;;;7397588;19;20132;-77
2023/03/30 07:09:02;;;;;;;5.82;3.60;;;9.40;1.00;9.50;93788.00;;;;7399546;19;20133;-77
2023/03/30 07:11:29;;;;;;;8.45;2.88;;;9.40;1.00;9.50;93791.00;;;;7394005;19;20176;-75
2023/03/30 07:14:04;;;;;;;10.68;3.38;;;9.30;1.00;9.60;93772.00;;;;7395459;19;20151;-76
2023/03/30 07:16:31;;;;;;;5.30;3.27;;;9.30;1.00;9.50;93750.00;;;;7398505;19;20133;-78
2023/03/30 07:19:05;;;;;;;6.05;2.88;;;9.20;1.00;9.40;93742.00;;;;7397765;19;20152;-77
2023/03/30 07:21:33;;;;;;;6.75;2.90;;;9.20;1.00;9.40;93726.00;;;;7398851;19;20137;-76
2023/03/30 07:24:07;;;;;;;9.10;2.80;;;9.10;1.00;9.40;93731.00;;;;7397430;19;20133;-78
2023/03/30 07:26:40;;;;;;;3.83;2.83;;;9.10;1.00;9.30;93712.00;;;;7396699;19;20141;-78
2023/03/30 07:29:14;;;;;;;4.75;2.63;;;9.10;1.00;9.40;93697.00;;;;7398953;19;20137;-78
2023/03/30 07:31:48;;;;;;;5.72;2.65;;;9.10;1.00;9.60;93714.00;;;;7397668;19;20140;-75
2023/03/30 07:34:16;;;;;;;6.63;2.20;;;9.10;1.00;9.30;93694.00;;;;7396292;19;20228;-78
2023/03/30 07:36:57;;;;;;;4.00;2.35;;;9.10;1.00;9.40;93704.00;;;;7396486;19;20167;-76
2023/03/30 07:39:24;;;;;;;4.97;1.92;;;9.10;1.00;9.50;93705.00;;;;7397413;19;20149;-76
2023/03/30 07:41:59;;;;;;;4.50;2.25;;;9.10;1.00;9.30;93720.00;;;;7397818;19;20136;-78
2023/03/30 07:44:34;;;;;;;2.90;1.80;;;9.10;1.00;9.30;93710.00;;;;7397854;19;20655;-76
2023/03/30 07:47:05;;;;;;;8.05;2.13;;;9.20;1.00;9.40;93751.00;;;;7396601;19;20139;-77
2023/03/30 07:49:39;;;;;;;5.45;2.13;;;9.20;1.00;9.40;93769.00;;;;7396872;19;20149;-77
2023/03/30 07:52:15;;;;;;;3.47;1.98;;;9.20;1.00;9.30;93790.00;;;;7397044;19;20147;-76
2023/03/30 07:54:49;;;;;;;3.30;1.88;;;9.30;1.00;9.20;93787.00;;;;7397599;19;20549;-76
2023/03/30 07:57:23;;;;;;;3.20;2.00;;;9.30;1.00;9.50;93789.00;;;;7397328;19;20201;-76
2023/03/30 07:59:57;;;;;;;4.50;1.85;;;9.20;1.00;9.50;93824.00;;;;7397528;19;20148;-78
2023/03/30 08:02:31;;;;;;;3.88;2.20;;;9.20;1.00;9.30;93824.00;;;;7394726;19;20264;-77
2023/03/30 08:04:58;;;;;;;4.10;2.00;;;9.20;1.00;9.50;93819.00;;;;7398094;19;20161;-77
2023/03/30 08:07:34;;;;;;;2.83;1.73;;;9.20;1.00;9.50;93803.00;;;;7403473;19;20121;-77
2023/03/30 08:10:01;;;;;;;1.73;1.53;;;9.20;1.00;9.40;93816.00;;;;7405532;19;20138;-78
2023/03/30 08:12:36;;;;;;;6.15;2.08;;;9.20;1.00;9.50;93826.00;;;;7404211;19;20141;-78
2023/03/30 08:15:04;;;;;;;2.28;1.25;;;9.10;1.00;9.30;93798.00;;;;7404427;19;20145;-78
2023/03/30 08:17:40;;;;;;;2.10;1.50;;;9.10;1.00;9.30;93780.00;;;;7404206;19;20192;-76
2023/03/30 08:20:14;;;;;;;1.95;1.55;;;9.00;99.90;9.40;93775.00;;;;7403607;19;20611;-78
2023/03/30 08:22:48;;;;;;;2.60;1.35;;;9.00;99.90;9.50;93771.00;;;;7404047;19;20140;-78
2023/03/30 08:25:22;;;;;;;3.22;1.38;;;8.90;1.00;9.50;93750.00;;;;7403365;19;20120;-79
2023/03/30 08:27:57;;;;;;;1.58;1.17;;;8.90;1.00;9.40;93692.00;;;;7401893;19;20148;-76
2023/03/30 08:30:31;;;;;;;4.38;1.52;;;8.90;1.00;9.30;93756.00;;;;7404373;19;20592;-76
2023/03/30 08:33:07;;;;;;;3.88;1.70;;;8.80;1.00;9.20;93743.00;;;;7402449;19;20148;-75
2023/03/30 08:35:48;;;;;;;5.43;1.80;;;8.80;1.00;9.20;93738.00;;;;7401574;19;20148;-76
2023/03/30 08:38:23;;;;;;;3.30;1.30;;;8.80;1.00;9.30;93736.00;;;;7405498;19;20137;-77
2023/03/30 08:40:50;;;;;;;5.13;1.80;;;8.80;1.00;9.10;93740.00;;;;7403901;19;20186;-78
2023/03/30 08:43:39;;;;;;;4.90;1.80;;;8.80;1.00;9.20;93742.00;;;;7404578;19;20137;-76
2023/03/30 08:46:17;;;;;;;4.30;2.05;;;8.80;1.00;9.30;93700.00;;;;7402413;19;20148;-77
2023/03/30 08:48:53;;;;;;;2.88;1.63;;;8.80;1.00;9.50;93702.00;;;;7400678;19;20182;-78
2023/03/30 08:51:30;;;;;;;5.37;2.03;;;8.90;1.00;9.50;93719.00;;;;7403487;19;20567;-77
2023/03/30 08:54:09;;;;;;;3.33;1.77;;;8.90;1.00;9.50;93729.00;;;;7402141;19;20150;-76
2023/03/30 08:57:01;;;;;;;9.68;2.13;;;9.00;1.00;9.70;93734.00;;;;7403118;19;20192;-76
2023/03/30 09:00:05;;;;;;;2.23;1.67;;;9.00;1.00;9.90;93735.00;;;;7403707;19;20619;-76
2023/03/30 09:02:50;;;;;;;4.65;1.90;;;9.10;1.00;10.00;93720.00;;;;7402911;19;20144;-75
2023/03/30 09:05:37;;;;;;;3.97;1.80;;;9.30;99.90;10.40;93745.00;;;;7404465;19;20164;-75
2023/03/30 09:08:18;;;;;;;4.22;2.08;;;9.50;1.00;11.10;93734.00;;;;7401051;19;20141;-75
2023/03/30 09:10:58;;;;;;;3.25;1.83;;;9.90;99.90;11.60;93731.00;;;;7402668;19;20133;-75
2023/03/30 09:13:36;;;;;;;6.93;2.00;;;10.40;99.90;12.30;93715.00;;;;7403011;19;20137;-75
2023/03/30 09:16:37;;;;;;;3.88;1.90;;;10.80;99.90;12.70;93706.00;;;;7400464;19;20136;-75
2023/03/30 09:19:24;;;;;;;3.28;1.75;;;11.20;99.90;13.00;93688.00;;;;7402092;19;20137;-74
2023/03/30 09:22:04;;;;;;;4.55;2.08;;;11.60;1.00;12.90;93687.00;;;;7402591;19;20608;-75
2023/03/30 09:24:32;;;;;;;1.50;1.30;;;11.70;99.90;13.00;93692.00;;;;7403342;19;20233;-75
2023/03/30 09:27:44;;;;;;;2.53;1.80;;;11.80;99.90;13.50;93722.00;;;;7402203;19;20121;-74
2023/03/30 09:30:20;;;;;;;4.00;2.00;;;12.10;99.90;13.80;93723.00;;;;7402382;19;20472;-74
2023/03/30 09:33:12;;;;;;;6.68;2.35;;;12.40;10.90;13.50;93750.00;;;;7401697;19;20152;-73
2023/03/30 09:36:07;;;;;;;2.85;1.88;;;12.50;99.90;12.60;93749.00;;;;7401188;19;20499;-75
2023/03/30 09:38:44;;;;;;;5.85;2.10;;;12.40;1.00;12.30;93747.00;;;;7400569;19;20152;-73
2023/03/30 09:41:38;;;;;;;4.43;2.03;;;12.30;99.90;11.90;93767.00;;;;7401509;19;20146;-75
2023/03/30 09:44:26;;;;;;;5.55;2.00;;;11.90;99.90;11.60;93760.00;;;;7402616;19;20204;-75
2023/03/30 09:46:58;;;;;;;5.78;2.67;;;11.50;1.00;11.70;93751.00;;;;7402533;19;20143;-76
2023/03/30 09:49:38;;;;;;;6.43;2.28;;;11.40;21.00;11.80;93754.00;;;;7401647;19;20141;-76
2023/03/30 09:52:18;;;;;;;7.13;2.47;;;11.40;1.00;11.50;93771.00;;;;7401569;19;20125;-79
2023/03/30 09:54:52;;;;;;;5.40;2.17;;;11.40;1.00;11.80;93738.00;;;;7401141;19;20600;-76
2023/03/30 09:57:27;;;;;;;8.75;2.30;;;11.40;99.90;12.00;93758.00;;;;7401800;19;20209;-74
2023/03/30 10:00:26;;;;;;;9.23;2.88;;;11.60;1.00;12.30;93784.00;;;;7400026;19;20240;-74
2023/03/30 10:03:03;;;;;;;3.85;1.65;;;11.80;1.00;11.60;93770.00;;;;7398966;19;20184;-76
2023/03/30 10:05:37;;;;;;;5.05;2.45;;;11.50;99.90;11.50;93753.00;;;;7401698;19;20129;-74
2023/03/30 10:08:19;;;;;;;3.45;2.22;;;11.20;99.90;12.00;93732.00;;;;7401240;19;20631;-75
2023/03/30 10:10:55;;;;;;;7.18;2.20;;;11.40;1.00;12.70;93716.00;;;;7402449;19;20140;-74
2023/03/30 10:13:40;;;;;;;5.13;2.13;;;11.80;1.00;12.40;93735.00;;;;7402407;19;20604;-74
2023/03/30 10:16:31;;;;;;;4.82;2.50;;;11.90;99.90;12.80;93707.00;;;;7400241;19;20450;-75
2023/03/30 10:19:03;;;;;;;4.93;2.45;;;11.80;6.50;12.90;93723.00;;;;7401033;19;20146;-73
2023/03/30 10:21:40;;;;;;;4.00;2.28;;;11.90;99.90;13.00;93725.00;;;;7400582;19;20156;-77
2023/03/30 10:24:13;;;;;;;5.00;2.30;;;12.00;99.90;12.60;93723.00;;;;7400148;19;20133;-76
2023/03/30 10:26:58;;;;;;;4.63;2.33;;;12.00;99.90;13.40;93732.00;;;;7401047;19;20129;-75
2023/03/30 10:29:32;;;;;;;8.25;2.40;;;12.50;99.90;13.90;93732.00;;;;7399543;19;20579;-74
2023/03/30 10:32:30;;;;;;;4.57;2.60;;;12.70;99.90;12.70;93723.00;;;;7400429;19;20468;-75
2023/03/30 10:35:15;;;;;;;4.43;2.25;;;12.50;1.00;12.60;93729.00;;;;7398135;19;20160;-75
2023/03/30 10:37:55;;;;;;;6.13;2.50;;;12.10;1.00;12.20;93749.00;;;;7401496;19;20500;-73
2023/03/30 10:40:36;;;;;;;6.80;2.75;;;11.70;99.90;11.50;93703.00;;;;7398788;19;20172;-75
2023/03/30 10:43:29;;;;;;;4.38;2.28;;;11.30;99.90;11.20;93685.00;;;;7398894;19;20141;-76
2023/03/30 10:46:06;;;;;;;4.22;2.38;;;10.90;1.00;11.40;93685.00;;;;7398610;19;20172;-76
2023/03/30 10:49:18;;;;;;;9.55;2.45;;;10.80;99.90;11.50;93681.00;;;;7398960;19;20136;-76
2023/03/30 10:52:07;;;;;;;5.50;2.10;;;10.70;1.00;11.60;93712.00;;;;7401064;19;20169;-75
2023/03/30 10:55:12;;;;;;;6.20;2.20;;;10.70;1.00;12.10;93706.00;;;;7401290;19;20125;-75
2023/03/30 10:58:18;;;;;;;4.82;2.60;;;10.90;99.90;12.10;93692.00;;;;7401145;19;20165;-75
2023/03/30 11:01:09;;;;;;;4.85;2.55;;;11.00;99.90;12.00;93724.00;;;;7397651;19;20136;-74
2023/03/30 11:03:40;;;;;;;3.08;2.13;;;11.00;93.50;12.00;93725.00;;;;7397987;19;20164;-76
2023/03/30 11:06:30;;;;;;;2.88;2.40;;;11.10;1.00;12.10;93728.00;;;;7399552;19;20145;-73
2023/03/30 11:09:13;;;;;;;2.10;1.90;;;11.20;1.00;12.00;93730.00;;;;7397813;19;20488;-75
2023/03/30 11:11:50;;;;;;;6.82;2.42;;;11.30;1.00;11.80;93738.00;;;;7400141;19;20132;-76
2023/03/30 11:14:45;;;;;;;6.45;2.45;;;11.10;1.00;11.60;93744.00;;;;7399239;19;20133;-75
2023/03/30 11:17:27;;;;;;;5.70;2.38;;;11.10;1.00;11.60;93724.00;;;;7398872;19;20140;-76
2023/03/30 11:20:32;;;;;;;4.40;2.20;;;11.10;99.90;11.70;93742.00;;;;7398929;19;20630;-75
2023/03/30 11:23:54;;;;;;;4.25;2.13;;;11.20;1.00;11.70;93745.00;;;;7398703;19;20619;-75
2023/03/30 11:27:07;;;;;;;6.15;2.30;;;11.10;1.00;11.60;93750.00;;;;7398615;19;20152;-77
2023/03/30 11:29:59;;;;;;;5.00;2.30;;;11.00;99.90;11.60;93743.00;;;;7397345;19;20619;-76
2023/03/30 11:32:51;;;;;;;5.47;2.40;;;11.00;1.00;11.80;93725.00;;;;7399333;19;20140;-75
2023/03/30 11:36:17;;;;;;;5.68;2.55;;;11.20;1.00;12.10;93735.00;;;;7397419;19;20208;-73
2023/03/30 11:39:06;;;;;;;2.95;2.17;;;11.30;99.90;12.30;93711.00;;;;7399289;19;20160;-75
2023/03/30 11:42:10;;;;;;;6.90;2.67;;;11.50;99.90;12.20;93729.00;;;;7397879;19;20148;-75
2023/03/30 11:44:37;;;;;;;5.85;2.30;;;11.50;99.90;12.20;93697.00;;;;7397761;19;20220;-75
2023/03/30 11:47:42;;;;;;;6.30;2.33;;;11.60;84.70;12.10;93729.00;;;;7397469;19;20148;-75
2023/03/30 11:51:00;;;;;;;7.65;2.58;;;11.60;99.90;12.30;93730.00;;;;7399945;19;20133;-75